Terminal Aerodrome Forecast
Issued by NWS

Home | Current Version | Previous Version | Text Only | Print | Product List | Glossary On
Versions: 1 2 3 4 5 6 7 8 9 10 11 12
000
FTUS44 KEPZ 311100 RRA
TAFTCS
TAF
KTCS 311145Z 3112/0112 VRB05KT 6SM -RA SCT004 OVC015
      TEMPO 3112/3115 2SM -RA BR OVC004
     FM311500 16007KT P6SM VCSH BKN015 OVC050
     FM312000 18008KT 6SM -SHRA BKN020 OVC050
     FM010400 25007KT P6SM SCT020 BKN060=

USA.gov is the U.S. government's official web portal to all federal, state and local government web resources and services.